createdAt,value
2022-10-21T00:00:57.993Z,83.77
2022-10-21T00:03:29.566Z,80.47
2022-10-21T00:05:57.610Z,79.60
2022-10-21T00:08:27.051Z,78.70
2022-10-21T00:10:59.038Z,80.33
2022-10-21T00:13:29.061Z,83.40
2022-10-21T00:16:01.572Z,83.07
2022-10-21T00:18:30.240Z,85.27
2022-10-21T00:20:58.528Z,84.80
2022-10-21T00:23:27.477Z,87.27
2022-10-21T00:25:59.158Z,82.73
2022-10-21T00:28:27.769Z,82.60
2022-10-21T00:30:57.985Z,82.90
2022-10-21T00:33:27.769Z,81.23
2022-10-21T00:35:58.200Z,79.67
2022-10-21T00:38:26.433Z,84.20
2022-10-21T00:40:54.458Z,83.20
2022-10-21T00:43:24.176Z,83.27
2022-10-21T00:45:55.231Z,82.47
2022-10-21T00:48:30.143Z,82.13
2022-10-21T00:51:01.928Z,85.67
2022-10-21T00:53:31.177Z,83.83
2022-10-21T00:56:03.128Z,84.67
2022-10-21T00:58:35.617Z,83.47
2022-10-21T01:01:06.080Z,85.10
2022-10-21T01:03:35.939Z,87.50
2022-10-21T01:06:08.025Z,86.30
2022-10-21T01:08:37.058Z,79.97
2022-10-21T01:11:08.163Z,87.23
2022-10-21T01:13:49.609Z,85.53
2022-10-21T01:16:22.268Z,84.50
2022-10-21T01:19:00.182Z,84.87
2022-10-21T01:21:35.924Z,87.43
2022-10-21T01:24:36.301Z,88.53
2022-10-21T01:27:17.945Z,87.17
2022-10-21T01:30:09.208Z,88.53
2022-10-21T01:33:15.188Z,89.70
2022-10-21T01:35:50.626Z,88.57
2022-10-21T01:38:24.498Z,84.43
2022-10-21T01:40:58.472Z,86.53
2022-10-21T01:43:34.834Z,86.13
2022-10-21T01:46:07.194Z,88.53
2022-10-21T01:48:41.095Z,86.63
2022-10-21T01:51:11.191Z,87.20
2022-10-21T01:53:47.906Z,87.70
2022-10-21T01:56:18.324Z,89.80
2022-10-21T01:58:48.465Z,87.67
2022-10-21T02:01:18.847Z,89.23
2022-10-21T02:03:52.591Z,86.13
2022-10-21T02:06:20.515Z,79.20
2022-10-21T02:08:49.229Z,81.57
2022-10-21T02:11:19.012Z,82.80
2022-10-21T02:14:03.799Z,87.27
2022-10-21T02:16:37.761Z,86.63
2022-10-21T02:19:12.108Z,85.67
2022-10-21T02:21:40.776Z,87.77
2022-10-21T02:24:16.948Z,87.57
2022-10-21T02:26:45.116Z,89.20
2022-10-21T02:29:14.678Z,89.43
2022-10-21T02:32:01.582Z,88.17
2022-10-21T02:34:43.058Z,86.00
2022-10-21T02:37:28.147Z,85.67
2022-10-21T02:40:01.246Z,88.20
2022-10-21T02:42:33.231Z,86.50
2022-10-21T02:45:02.382Z,87.60
2022-10-21T02:47:30.650Z,87.57
2022-10-21T02:50:00.127Z,84.10
2022-10-21T02:52:28.130Z,84.20
2022-10-21T02:54:56.248Z,84.40
2022-10-21T02:57:24.304Z,83.43
2022-10-21T02:59:52.347Z,83.00
2022-10-21T03:02:20.473Z,81.70
2022-10-21T03:04:48.494Z,82.30
2022-10-21T03:07:17.947Z,79.47
2022-10-21T03:09:45.969Z,80.30
2022-10-21T03:12:14.054Z,81.80
2022-10-21T03:14:42.115Z,80.20
2022-10-21T03:17:10.240Z,81.73
2022-10-21T03:19:38.292Z,82.63
2022-10-21T03:22:06.391Z,81.97
2022-10-21T03:24:35.805Z,83.07
2022-10-21T03:27:04.075Z,84.77
2022-10-21T03:29:32.256Z,84.67
2022-10-21T03:32:00.362Z,85.20
2022-10-21T03:34:28.499Z,86.07
2022-10-21T03:36:56.574Z,86.53
2022-10-21T03:39:24.670Z,85.40
2022-10-21T03:41:54.191Z,84.83
2022-10-21T03:44:22.262Z,83.40
2022-10-21T03:46:50.377Z,84.67
2022-10-21T03:49:21.369Z,86.87
2022-10-21T03:51:50.017Z,84.30
2022-10-21T03:54:18.484Z,87.70
2022-10-21T03:56:47.240Z,84.77
2022-10-21T03:59:16.971Z,86.00
2022-10-21T04:01:45.150Z,84.63
2022-10-21T04:04:13.227Z,82.90
2022-10-21T04:06:41.215Z,82.00
2022-10-21T04:09:09.364Z,81.17
2022-10-21T04:11:37.518Z,81.90
2022-10-21T04:14:05.629Z,80.23
2022-10-21T04:16:35.167Z,87.70
2022-10-21T04:19:03.387Z,82.53
2022-10-21T04:21:31.475Z,82.07
2022-10-21T04:23:59.533Z,84.57
2022-10-21T04:26:27.596Z,85.30
2022-10-21T04:28:55.837Z,85.60
2022-10-21T04:31:26.521Z,84.20
2022-10-21T04:33:57.914Z,84.27
2022-10-21T04:36:26.047Z,83.93
2022-10-21T04:38:55.080Z,83.40
2022-10-21T04:41:23.282Z,84.90
2022-10-21T04:43:51.361Z,81.43
2022-10-21T04:46:20.870Z,82.00
2022-10-21T04:48:49.068Z,81.43
2022-10-21T04:51:18.565Z,86.77
2022-10-21T04:53:46.882Z,83.90
2022-10-21T04:56:14.930Z,85.50
2022-10-21T04:58:42.997Z,86.67
2022-10-21T05:01:11.126Z,79.07
2022-10-21T05:03:39.213Z,78.83
2022-10-21T05:06:07.406Z,79.20
2022-10-21T05:08:37.000Z,81.37
2022-10-21T05:11:05.219Z,81.27
2022-10-21T05:13:33.599Z,80.30
2022-10-21T05:16:02.794Z,76.87
2022-10-21T05:18:31.397Z,79.80
2022-10-21T05:20:59.941Z,77.90
2022-10-21T05:23:28.425Z,77.27
2022-10-21T05:25:58.073Z,75.77
2022-10-21T05:28:26.605Z,84.13
2022-10-21T05:30:54.696Z,80.43
2022-10-21T05:33:22.763Z,78.20
2022-10-21T05:35:58.228Z,74.90
2022-10-21T05:38:26.235Z,74.87
2022-10-21T05:40:54.327Z,75.50
2022-10-21T05:43:23.837Z,71.37
2022-10-21T05:45:51.967Z,72.03
2022-10-21T05:48:20.207Z,73.63
2022-10-21T05:50:48.871Z,74.77
2022-10-21T05:53:17.470Z,75.00
2022-10-21T05:55:45.666Z,73.50
2022-10-21T05:58:13.687Z,72.30
2022-10-21T06:00:43.477Z,75.30
2022-10-21T06:03:11.632Z,75.70
2022-10-21T06:05:39.741Z,79.43
2022-10-21T06:08:07.951Z,83.17
2022-10-21T06:10:35.985Z,81.60
2022-10-21T06:13:04.078Z,79.80
2022-10-21T06:15:32.143Z,81.77
2022-10-21T06:18:01.555Z,83.57
2022-10-21T06:20:29.636Z,78.20
2022-10-21T06:22:59.676Z,76.77
2022-10-21T06:25:27.799Z,79.73
2022-10-21T06:27:55.901Z,79.67
2022-10-21T06:30:24.207Z,77.87
2022-10-21T06:32:52.237Z,76.47
2022-10-21T06:35:21.511Z,79.90
2022-10-21T06:37:49.426Z,78.50
2022-10-21T06:40:17.544Z,78.30
2022-10-21T06:42:45.473Z,80.60
2022-10-21T06:45:13.635Z,84.83
2022-10-21T06:47:41.941Z,82.70
2022-10-21T06:50:10.494Z,83.77
2022-10-21T06:52:39.950Z,82.67
2022-10-21T06:55:08.997Z,81.97
2022-10-21T06:57:37.442Z,84.47
2022-10-21T07:00:06.641Z,84.90
2022-10-21T07:02:34.591Z,83.83
2022-10-21T07:05:02.663Z,84.10
2022-10-21T07:07:30.575Z,86.40
2022-10-21T07:09:59.942Z,82.80
2022-10-21T07:12:28.719Z,81.90
2022-10-21T07:14:56.608Z,80.83
2022-10-21T07:17:24.773Z,83.13
2022-10-21T07:19:52.683Z,82.90
2022-10-21T07:22:20.616Z,78.83
2022-10-21T07:24:48.547Z,79.10
2022-10-21T07:27:17.811Z,79.57
2022-10-21T07:29:45.797Z,80.20
2022-10-21T07:32:13.708Z,82.73
2022-10-21T07:34:41.784Z,83.33
2022-10-21T07:37:09.836Z,83.33
2022-10-21T07:39:37.746Z,84.27
2022-10-21T07:42:05.696Z,84.30
2022-10-21T07:44:36.047Z,85.30
2022-10-21T07:47:04.012Z,89.57
2022-10-21T07:49:31.891Z,88.20
2022-10-21T07:52:00.026Z,87.10
2022-10-21T07:54:27.932Z,90.57
2022-10-21T07:56:55.832Z,90.73
2022-10-21T07:59:24.374Z,89.30
2022-10-21T08:01:54.098Z,90.67
2022-10-21T08:04:24.860Z,91.73
2022-10-21T08:06:52.895Z,92.33
2022-10-21T08:09:20.834Z,92.10
2022-10-21T08:11:48.864Z,92.80
2022-10-21T08:14:17.086Z,90.73
2022-10-21T08:16:45.067Z,86.57
2022-10-21T08:19:19.902Z,87.07
2022-10-21T08:21:48.054Z,89.57
2022-10-21T08:24:15.987Z,92.13
2022-10-21T08:26:43.925Z,92.83
2022-10-21T08:29:11.865Z,89.97
2022-10-21T08:31:40.859Z,91.07
2022-10-21T08:34:10.444Z,88.20
2022-10-21T08:36:40.171Z,86.47
2022-10-21T08:39:08.569Z,86.43
2022-10-21T08:41:57.554Z,87.10
2022-10-21T08:44:34.699Z,89.03
2022-10-21T08:49:51.795Z,86.53
2022-10-21T08:52:24.619Z,92.10
2022-10-21T08:54:57.443Z,93.37
2022-10-21T08:57:25.528Z,92.60
2022-10-21T08:59:53.871Z,90.90
2022-10-21T09:02:36.315Z,94.63
2022-10-21T09:05:22.741Z,95.57
2022-10-21T09:08:04.369Z,97.20
2022-10-21T09:10:46.595Z,97.67
2022-10-21T09:13:21.329Z,92.40
2022-10-21T09:16:00.156Z,91.50
2022-10-21T09:18:39.670Z,95.17
2022-10-21T09:21:15.939Z,97.30
2022-10-21T09:24:06.735Z,101.40
2022-10-21T09:26:38.885Z,98.97
2022-10-21T09:29:31.789Z,95.13
2022-10-21T09:32:11.496Z,95.90
2022-10-21T09:34:52.091Z,97.60
2022-10-21T09:37:29.428Z,98.47
2022-10-21T09:40:08.460Z,94.20
2022-10-21T09:42:47.482Z,92.80
2022-10-21T09:45:25.002Z,92.20
2022-10-21T09:47:57.938Z,94.80
2022-10-21T09:50:26.782Z,98.67
2022-10-21T09:53:01.794Z,97.53
2022-10-21T09:55:32.618Z,101.80
2022-10-21T09:58:02.722Z,94.27
2022-10-21T10:00:45.849Z,96.10
2022-10-21T10:03:14.514Z,94.63
2022-10-21T10:05:47.114Z,93.60
2022-10-21T10:08:27.634Z,92.97
2022-10-21T10:11:03.467Z,91.80
2022-10-21T10:13:32.089Z,90.97
2022-10-21T10:16:15.769Z,89.93
2022-10-21T10:18:44.596Z,90.83
2022-10-21T10:21:13.865Z,93.13
2022-10-21T10:23:47.130Z,94.27
2022-10-21T10:26:23.752Z,101.67
2022-10-21T10:28:57.696Z,102.40
2022-10-21T10:31:29.449Z,95.77
2022-10-21T10:34:01.037Z,95.40
2022-10-21T10:36:32.707Z,94.40
2022-10-21T10:39:02.780Z,95.30
2022-10-21T10:41:37.335Z,95.40
2022-10-21T10:44:11.998Z,94.07
2022-10-21T10:46:40.788Z,92.60
2022-10-21T10:49:22.522Z,95.17
2022-10-21T10:52:06.528Z,91.53
2022-10-21T10:54:34.975Z,90.87
2022-10-21T10:57:09.747Z,88.37
2022-10-21T10:59:43.097Z,85.07
2022-10-21T11:02:26.881Z,82.43
2022-10-21T11:05:16.239Z,85.03
2022-10-21T11:07:48.650Z,81.87
2022-10-21T11:10:30.957Z,83.53
2022-10-21T11:13:01.787Z,81.40
2022-10-21T11:15:43.229Z,69.47
2022-10-21T11:18:25.829Z,68.87
2022-10-21T11:21:06.296Z,70.00
2022-10-21T11:23:52.274Z,68.47
2022-10-21T11:26:33.712Z,70.43
2022-10-21T11:29:17.472Z,67.40
2022-10-21T11:32:10.687Z,63.00
2022-10-21T11:34:50.740Z,54.90
2022-10-21T11:37:28.767Z,55.47
2022-10-21T11:40:04.367Z,57.63
2022-10-21T11:42:39.946Z,52.20
2022-10-21T11:45:26.360Z,47.30
2022-10-21T11:48:01.883Z,37.10
2022-10-21T11:50:36.589Z,29.90
2022-10-21T11:53:17.769Z,27.03
2022-10-21T11:55:54.560Z,22.27
2022-10-21T11:58:37.314Z,20.40
2022-10-21T12:01:23.975Z,19.50
2022-10-21T12:04:17.393Z,18.37
2022-10-21T12:06:53.621Z,18.30
2022-10-21T12:09:27.629Z,17.33
2022-10-21T12:11:59.868Z,17.83
2022-10-21T12:14:31.843Z,17.10
2022-10-21T12:17:06.415Z,17.13
2022-10-21T12:19:35.555Z,17.70
2022-10-21T12:22:04.601Z,17.60
2022-10-21T12:24:45.024Z,18.10
2022-10-21T12:27:22.910Z,18.17
2022-10-21T12:30:05.212Z,18.60
2022-10-21T12:32:42.669Z,17.63
2022-10-21T12:35:15.008Z,17.17
2022-10-21T12:38:01.926Z,17.80
2022-10-21T12:40:41.036Z,17.20
2022-10-21T12:43:22.399Z,17.90
2022-10-21T12:46:04.496Z,18.10
2022-10-21T12:48:38.137Z,17.57
2022-10-21T12:51:09.103Z,17.70
2022-10-21T12:53:41.272Z,17.73
2022-10-21T12:56:11.536Z,18.20
2022-10-21T12:58:42.615Z,17.50
2022-10-21T13:01:35.397Z,17.93
2022-10-21T13:04:05.373Z,17.87
2022-10-21T13:06:52.917Z,17.67
2022-10-21T13:09:39.290Z,17.90
2022-10-21T13:12:30.425Z,18.30
2022-10-21T13:14:59.633Z,18.10
2022-10-21T13:17:47.132Z,18.17
2022-10-21T13:20:48.271Z,18.37
2022-10-21T13:23:37.907Z,18.30
2022-10-21T13:26:14.107Z,18.63
2022-10-21T13:28:42.774Z,18.80
2022-10-21T13:31:11.073Z,18.53
2022-10-21T13:33:39.832Z,18.37
2022-10-21T13:36:14.061Z,17.60
2022-10-21T13:38:50.352Z,17.73
2022-10-21T13:41:26.159Z,17.40
2022-10-21T13:43:57.271Z,17.10
2022-10-21T13:46:28.721Z,17.80
2022-10-21T13:49:00.584Z,17.50
2022-10-21T13:51:32.657Z,17.33
2022-10-21T13:54:04.257Z,16.63
2022-10-21T13:56:34.312Z,17.37
2022-10-21T13:59:02.946Z,17.50
2022-10-21T14:01:44.726Z,16.93
2022-10-21T14:04:14.841Z,17.50
2022-10-21T14:06:48.349Z,16.80
2022-10-21T14:09:21.754Z,17.40
2022-10-21T14:11:53.577Z,17.33
2022-10-21T14:14:25.572Z,17.43
2022-10-21T14:16:56.727Z,18.07
2022-10-21T14:19:29.090Z,18.33
2022-10-21T14:22:00.930Z,18.57
2022-10-21T14:24:34.970Z,18.70
2022-10-21T14:27:04.295Z,18.80
2022-10-21T14:29:36.021Z,18.70
2022-10-21T14:32:05.576Z,19.10
2022-10-21T14:34:36.712Z,20.20
2022-10-21T14:37:19.329Z,19.50
2022-10-21T14:39:47.967Z,18.97
2022-10-21T14:42:19.332Z,19.20
2022-10-21T14:44:49.661Z,18.87
2022-10-21T14:47:19.773Z,18.33
2022-10-21T14:49:50.048Z,19.00
2022-10-21T14:52:22.808Z,18.73
2022-10-21T14:54:55.788Z,18.97
2022-10-21T14:57:35.460Z,18.90
2022-10-21T15:00:06.118Z,19.90
2022-10-21T15:02:37.231Z,20.07
2022-10-21T15:05:30.953Z,20.33
2022-10-21T15:08:32.145Z,20.67
2022-10-21T15:11:23.319Z,21.20
2022-10-21T15:14:07.279Z,20.90
2022-10-21T15:19:10.103Z,21.57
2022-10-21T15:21:40.974Z,21.63
2022-10-21T15:24:21.102Z,22.07
2022-10-21T15:26:51.707Z,21.70
2022-10-21T15:29:34.835Z,22.67
2022-10-21T15:32:03.620Z,24.50
2022-10-21T15:34:31.956Z,22.87
2022-10-21T15:37:00.101Z,23.00
2022-10-21T15:39:30.080Z,22.83
2022-10-21T15:41:58.987Z,21.97
2022-10-21T15:44:29.260Z,22.07
2022-10-21T15:47:00.723Z,22.90
2022-10-21T15:49:32.855Z,22.23
2022-10-21T15:52:01.024Z,21.93
2022-10-21T15:54:30.447Z,21.90
2022-10-21T15:57:00.216Z,21.90
2022-10-21T15:59:29.811Z,21.60
2022-10-21T16:01:58.856Z,22.50
2022-10-21T16:04:27.652Z,22.27
2022-10-21T16:06:56.237Z,22.60
2022-10-21T16:09:27.003Z,24.10
2022-10-21T16:12:00.340Z,24.10
2022-10-21T16:14:30.999Z,24.10
2022-10-21T16:17:00.461Z,23.50
2022-10-21T16:19:29.035Z,25.60
2022-10-21T16:21:57.118Z,25.00
2022-10-21T16:24:25.265Z,24.60
2022-10-21T16:26:53.380Z,25.97
2022-10-21T16:29:24.694Z,27.00
2022-10-21T16:31:53.291Z,26.50
2022-10-21T16:34:21.572Z,26.60
2022-10-21T16:36:49.693Z,27.50
2022-10-21T16:39:21.958Z,28.03
2022-10-21T16:41:50.298Z,29.43
2022-10-21T16:44:18.620Z,30.40
2022-10-21T16:46:52.065Z,30.07
2022-10-21T16:49:23.421Z,32.50
2022-10-21T16:51:53.095Z,32.53
2022-10-21T16:54:22.622Z,34.87
2022-10-21T16:56:53.357Z,35.47
2022-10-21T16:59:23.449Z,35.73
2022-10-21T17:01:52.973Z,37.80
2022-10-21T17:04:21.090Z,38.87
2022-10-21T17:06:49.026Z,41.60
2022-10-21T17:09:17.281Z,41.50
2022-10-21T17:11:45.438Z,44.70
2022-10-21T17:14:17.523Z,45.10
2022-10-21T17:16:46.318Z,47.27
2022-10-21T17:19:15.918Z,48.30
2022-10-21T17:21:44.383Z,49.20
2022-10-21T17:24:15.421Z,50.07
2022-10-21T17:26:43.500Z,48.67
2022-10-21T17:29:12.459Z,49.30
2022-10-21T17:31:42.660Z,47.90
2022-10-21T17:34:29.080Z,50.70
2022-10-21T17:36:57.488Z,49.07
2022-10-21T17:39:25.899Z,50.63
2022-10-21T17:41:54.479Z,52.23
2022-10-21T17:44:22.943Z,52.87
2022-10-21T17:46:54.636Z,55.20
2022-10-21T17:49:23.749Z,53.80
2022-10-21T17:51:53.755Z,58.33
2022-10-21T17:54:25.982Z,59.00
2022-10-21T17:56:57.777Z,58.43
2022-10-21T17:59:26.838Z,60.07
2022-10-21T18:01:55.255Z,57.40
2022-10-21T18:04:23.716Z,57.47
2022-10-21T18:06:53.294Z,57.03
2022-10-21T18:09:21.813Z,56.80
2022-10-21T18:11:50.129Z,57.93
2022-10-21T18:14:18.431Z,58.40
2022-10-21T18:16:47.106Z,57.80
2022-10-21T18:19:15.601Z,58.97
2022-10-21T18:21:43.886Z,57.67
2022-10-21T18:24:13.658Z,58.67
2022-10-21T18:26:42.020Z,57.30
2022-10-21T18:29:10.567Z,57.00
2022-10-21T18:31:40.146Z,55.03
2022-10-21T18:34:09.342Z,56.50
2022-10-21T18:36:38.102Z,57.67
2022-10-21T18:39:07.696Z,55.63
2022-10-21T18:41:38.676Z,56.13
2022-10-21T18:44:09.226Z,56.33
2022-10-21T18:46:39.202Z,56.00
2022-10-21T18:49:15.137Z,53.93
2022-10-21T18:51:43.509Z,56.03
2022-10-21T18:54:11.846Z,56.13
2022-10-21T18:56:41.448Z,56.70
2022-10-21T18:59:10.056Z,54.03
2022-10-21T19:01:39.170Z,54.40
2022-10-21T19:04:07.723Z,54.83
2022-10-21T19:06:38.671Z,54.10
2022-10-21T19:09:10.031Z,55.07
2022-10-21T19:11:38.445Z,54.47
2022-10-21T19:14:11.259Z,54.70
2022-10-21T19:16:42.442Z,56.53
2022-10-21T19:19:11.053Z,57.50
2022-10-21T19:21:39.622Z,57.83
2022-10-21T19:24:08.553Z,57.40
2022-10-21T19:26:38.966Z,59.50
2022-10-21T19:29:10.716Z,58.70
2022-10-21T19:31:39.012Z,56.70
2022-10-21T19:34:07.763Z,57.43
2022-10-21T19:36:36.236Z,58.20
2022-10-21T19:39:04.491Z,59.73
2022-10-21T19:41:32.702Z,59.07
2022-10-21T19:44:01.404Z,60.83
2022-10-21T19:46:33.049Z,60.30
2022-10-21T19:49:02.762Z,59.43
2022-10-21T19:51:31.055Z,60.47
2022-10-21T19:53:59.410Z,60.33
2022-10-21T19:56:31.972Z,63.17
2022-10-21T19:59:02.730Z,62.50
2022-10-21T20:01:34.248Z,61.93
2022-10-21T20:04:04.419Z,61.00
2022-10-21T20:06:34.156Z,62.10
2022-10-21T20:09:04.682Z,62.73
2022-10-21T20:11:33.369Z,61.67
2022-10-21T20:14:01.875Z,61.40
2022-10-21T20:16:33.331Z,62.40
2022-10-21T20:19:02.665Z,62.83
2022-10-21T20:21:32.890Z,62.27
2022-10-21T20:24:01.783Z,64.60
2022-10-21T20:26:30.497Z,65.00
2022-10-21T20:29:00.693Z,68.60
2022-10-21T20:31:29.972Z,67.00
2022-10-21T20:33:59.660Z,70.57
2022-10-21T20:36:29.575Z,67.87
2022-10-21T20:38:59.789Z,66.17
2022-10-21T20:41:35.935Z,66.40
2022-10-21T20:44:06.359Z,69.40
2022-10-21T20:46:36.344Z,67.20
2022-10-21T20:49:08.118Z,69.97
2022-10-21T20:51:37.802Z,67.83
2022-10-21T20:54:08.439Z,69.03
2022-10-21T20:56:39.308Z,70.40
2022-10-21T20:59:09.146Z,68.03
2022-10-21T21:01:41.791Z,70.53
2022-10-21T21:04:13.381Z,71.70
2022-10-21T21:06:43.888Z,72.80
2022-10-21T21:09:33.614Z,70.07
2022-10-21T21:12:02.791Z,69.23
2022-10-21T21:14:31.161Z,69.97
2022-10-21T21:16:59.234Z,67.47
2022-10-21T21:19:28.792Z,68.80
2022-10-21T21:21:56.892Z,68.67
2022-10-21T21:24:24.993Z,70.40
2022-10-21T21:26:53.084Z,69.73
2022-10-21T21:29:21.210Z,68.30
2022-10-21T21:31:49.299Z,67.70
2022-10-21T21:34:17.607Z,70.67
2022-10-21T21:36:47.133Z,71.03
2022-10-21T21:41:43.405Z,66.67
2022-10-21T21:44:11.486Z,67.03
2022-10-21T21:46:39.543Z,65.53
2022-10-21T21:49:07.662Z,66.90
2022-10-21T21:51:37.013Z,66.47
2022-10-21T21:54:07.718Z,67.47
2022-10-21T21:56:36.054Z,69.00
2022-10-21T21:59:04.123Z,69.03
2022-10-21T22:01:32.219Z,70.70
2022-10-21T22:04:01.203Z,70.97
2022-10-21T22:06:32.405Z,70.97
2022-10-21T22:09:01.996Z,68.47
2022-10-21T22:11:33.458Z,66.33
2022-10-21T22:14:01.636Z,66.83
2022-10-21T22:16:30.993Z,68.70
2022-10-21T22:19:01.112Z,67.80
2022-10-21T22:21:30.851Z,65.47
2022-10-21T22:23:59.311Z,62.90
2022-10-21T22:26:27.663Z,67.83
2022-10-21T22:28:57.152Z,67.53
2022-10-21T22:31:29.290Z,68.50
2022-10-21T22:33:59.940Z,67.63
2022-10-21T22:36:28.121Z,67.20
2022-10-21T22:38:56.215Z,67.70
2022-10-21T22:41:24.261Z,64.17
2022-10-21T22:43:52.401Z,67.43
2022-10-21T22:46:29.747Z,67.23
2022-10-21T22:49:01.371Z,69.07
2022-10-21T22:51:29.444Z,69.03
2022-10-21T22:53:57.521Z,69.07
2022-10-21T22:56:26.145Z,69.03
2022-10-21T22:58:54.215Z,68.20
2022-10-21T23:01:26.665Z,68.67
2022-10-21T23:03:54.719Z,68.00
2022-10-21T23:06:22.723Z,70.13
2022-10-21T23:08:50.850Z,68.93
2022-10-21T23:11:18.953Z,68.07
2022-10-21T23:13:56.400Z,71.33
2022-10-21T23:16:32.566Z,74.97
2022-10-21T23:19:00.805Z,77.83
2022-10-21T23:21:29.331Z,75.80
2022-10-21T23:23:57.539Z,76.73
2022-10-21T23:26:25.833Z,76.47
2022-10-21T23:28:53.935Z,76.33
2022-10-21T23:31:21.956Z,77.10
2022-10-21T23:33:51.434Z,75.07
2022-10-21T23:36:19.834Z,75.00
2022-10-21T23:38:47.925Z,78.57
2022-10-21T23:41:15.983Z,74.20
2022-10-21T23:43:44.113Z,76.80
2022-10-21T23:46:12.141Z,74.80
2022-10-21T23:48:40.207Z,76.60
2022-10-21T23:51:09.637Z,77.17
2022-10-21T23:53:37.691Z,79.60
2022-10-21T23:56:06.267Z,82.17
2022-10-21T23:58:34.422Z,82.03
